createdAt,value
2022-07-25T00:00:47.981Z,64.37
2022-07-25T00:01:48.063Z,64.78
2022-07-25T00:02:47.965Z,64.45
2022-07-25T00:03:47.961Z,63.58
2022-07-25T00:04:48.093Z,64.07
2022-07-25T00:05:48.234Z,63.28
2022-07-25T00:06:47.922Z,63.45
2022-07-25T00:07:47.895Z,62.85
2022-07-25T00:08:47.884Z,62.95
2022-07-25T00:09:47.874Z,63.35
2022-07-25T00:10:48.165Z,63.65
2022-07-25T00:11:47.855Z,62.95
2022-07-25T00:12:47.850Z,62.85
2022-07-25T00:13:47.850Z,62.95
2022-07-25T00:14:47.818Z,62.55
2022-07-25T00:15:47.851Z,62.75
2022-07-25T00:16:48.047Z,62.85
2022-07-25T00:17:47.778Z,62.75
2022-07-25T00:18:47.791Z,62.75
2022-07-25T00:19:47.774Z,62.65
2022-07-25T00:20:47.795Z,62.85
2022-07-25T00:21:48.030Z,63.05
2022-07-25T00:22:47.742Z,62.95
2022-07-25T00:23:47.724Z,63.28
2022-07-25T00:24:47.723Z,63.28
2022-07-25T00:25:48.658Z,63.38
2022-07-25T00:26:47.696Z,63.38
2022-07-25T00:27:47.993Z,63.18
2022-07-25T00:28:47.660Z,64.07
2022-07-25T00:29:47.642Z,64.28
2022-07-25T00:30:47.675Z,63.58
2022-07-25T00:31:47.707Z,63.58
2022-07-25T00:32:47.622Z,63.28
2022-07-25T00:33:47.613Z,62.78
2022-07-25T00:34:47.601Z,62.68
2022-07-25T00:35:47.896Z,62.98
2022-07-25T00:36:47.791Z,63.08
2022-07-25T00:37:47.569Z,62.68
2022-07-25T00:38:47.559Z,62.59
2022-07-25T00:39:47.530Z,62.08
2022-07-25T00:40:54.279Z,61.88
2022-07-25T00:41:48.759Z,61.58
2022-07-25T00:42:47.497Z,61.69
2022-07-25T00:43:47.492Z,61.39
2022-07-25T00:44:47.479Z,60.99
2022-07-25T00:45:47.466Z,60.79
2022-07-25T00:46:47.570Z,60.96
2022-07-25T00:47:47.751Z,61.36
2022-07-25T00:48:47.552Z,60.96
2022-07-25T00:49:47.435Z,60.96
2022-07-25T00:50:47.423Z,61.06
2022-07-25T00:51:47.402Z,61.46
2022-07-25T00:52:47.391Z,61.06
2022-07-25T00:53:47.612Z,61.06
2022-07-25T00:54:47.379Z,60.36
2022-07-25T00:55:47.353Z,60.76
2022-07-25T00:56:47.371Z,61.16
2022-07-25T00:57:47.333Z,61.06
2022-07-25T00:58:47.322Z,61.06
2022-07-25T00:59:47.617Z,61.06
2022-07-25T01:00:47.626Z,61.16
2022-07-25T01:01:47.679Z,60.69
2022-07-25T01:02:47.320Z,61.09
2022-07-25T01:03:47.257Z,61.49
2022-07-25T01:04:47.270Z,61.49
2022-07-25T01:05:53.062Z,61.69
2022-07-25T01:06:48.560Z,61.49
2022-07-25T01:07:47.231Z,61.69
2022-07-25T01:08:47.222Z,61.09
2022-07-25T01:09:47.510Z,61.88
2022-07-25T01:10:47.209Z,61.79
2022-07-25T01:11:47.179Z,61.88
2022-07-25T01:12:47.430Z,61.69
2022-07-25T01:13:47.148Z,61.49
2022-07-25T01:14:47.140Z,61.39
2022-07-25T01:15:47.217Z,61.19
2022-07-25T01:16:47.135Z,60.59
2022-07-25T01:17:47.100Z,60.59
2022-07-25T01:18:47.420Z,60.79
2022-07-25T01:19:47.077Z,60.49
2022-07-25T01:20:47.087Z,61.19
2022-07-25T01:21:47.067Z,60.99
2022-07-25T01:22:47.043Z,60.29
2022-07-25T01:23:47.048Z,60.69
2022-07-25T01:24:47.246Z,60.29
2022-07-25T01:25:47.025Z,60.09
2022-07-25T01:26:47.227Z,60.09
2022-07-25T01:27:51.244Z,59.99
2022-07-25T01:28:47.997Z,59.99
2022-07-25T01:29:46.981Z,59.59
2022-07-25T01:30:46.998Z,59.56
2022-07-25T01:31:46.960Z,59.56
2022-07-25T01:32:47.260Z,59.56
2022-07-25T01:33:46.939Z,59.36
2022-07-25T01:34:46.931Z,59.56
2022-07-25T01:35:46.911Z,59.36
2022-07-25T01:36:47.090Z,59.56
2022-07-25T01:37:46.888Z,59.36
2022-07-25T01:38:46.873Z,59.36
2022-07-25T01:39:46.852Z,59.47
2022-07-25T01:40:46.860Z,59.36
2022-07-25T01:41:46.833Z,59.36
2022-07-25T01:42:47.145Z,59.36
2022-07-25T01:43:46.810Z,59.56
2022-07-25T01:44:46.791Z,59.56
2022-07-25T01:45:46.832Z,59.66
2022-07-25T01:46:46.847Z,59.56
2022-07-25T01:47:46.762Z,59.56
2022-07-25T01:48:47.094Z,59.77
2022-07-25T01:49:46.760Z,59.96
2022-07-25T01:50:46.745Z,59.96
2022-07-25T01:51:46.715Z,59.86
2022-07-25T01:52:46.716Z,59.99
2022-07-25T01:53:46.695Z,60.09
2022-07-25T01:54:47.009Z,60.09
2022-07-25T01:55:46.688Z,60.49
2022-07-25T01:56:46.953Z,60.69
2022-07-25T01:57:50.027Z,60.89
2022-07-25T01:58:46.636Z,60.99
2022-07-25T01:59:46.628Z,61.19
2022-07-25T02:00:46.649Z,61.39
2022-07-25T02:01:46.663Z,61.39
2022-07-25T02:02:46.872Z,61.49
2022-07-25T02:03:46.579Z,61.58
2022-07-25T02:04:46.589Z,61.82
2022-07-25T02:05:46.606Z,61.91
2022-07-25T02:06:46.773Z,61.82
2022-07-25T02:07:46.542Z,61.82
2022-07-25T02:08:46.520Z,62.01
2022-07-25T02:09:46.511Z,62.01
2022-07-25T02:10:46.516Z,62.21
2022-07-25T02:11:46.505Z,62.12
2022-07-25T02:12:46.750Z,61.91
2022-07-25T02:13:46.480Z,61.94
2022-07-25T02:14:46.456Z,62.34
2022-07-25T02:15:46.456Z,62.45
2022-07-25T02:16:46.516Z,62.24
2022-07-25T02:17:46.438Z,62.12
2022-07-25T02:18:46.737Z,62.04
2022-07-25T02:19:46.419Z,61.85
2022-07-25T02:20:46.386Z,61.85
2022-07-25T02:21:46.388Z,62.04
2022-07-25T02:22:46.358Z,62.04
2022-07-25T02:23:46.658Z,62.12
2022-07-25T02:24:46.359Z,61.94
2022-07-25T02:25:46.326Z,62.15
2022-07-25T02:26:46.347Z,61.94
2022-07-25T02:27:46.308Z,62.54
2022-07-25T02:28:46.299Z,62.24
2022-07-25T02:29:46.286Z,62.34
2022-07-25T02:30:46.337Z,62.34
2022-07-25T02:31:46.273Z,62.34
2022-07-25T02:32:46.573Z,62.34
2022-07-25T02:33:46.242Z,62.45
2022-07-25T02:34:46.234Z,62.34
2022-07-25T02:35:46.221Z,62.34
2022-07-25T02:36:46.242Z,62.34
2022-07-25T02:37:46.208Z,62.34
2022-07-25T02:38:46.436Z,62.45
2022-07-25T02:39:46.183Z,62.54
2022-07-25T02:40:46.473Z,62.64
2022-07-25T02:41:46.168Z,62.64
2022-07-25T02:42:46.146Z,62.84
2022-07-25T02:43:46.138Z,62.84
2022-07-25T02:44:46.122Z,62.94
2022-07-25T02:45:46.180Z,62.94
2022-07-25T02:46:46.331Z,62.94
2022-07-25T02:47:46.285Z,62.84
2022-07-25T02:48:46.420Z,62.87
2022-07-25T02:49:46.090Z,62.87
2022-07-25T02:50:46.065Z,62.87
2022-07-25T02:51:46.062Z,63.67
2022-07-25T02:52:46.042Z,63.57
2022-07-25T02:54:01.425Z,63.37
2022-07-25T02:54:47.321Z,63.07
2022-07-25T02:55:46.009Z,62.97
2022-07-25T02:56:45.978Z,63.27
2022-07-25T02:57:46.173Z,63.27
2022-07-25T02:58:45.971Z,63.07
2022-07-25T02:59:45.962Z,62.97
2022-07-25T03:00:45.945Z,63.67
2022-07-25T03:01:45.987Z,63.87
2022-07-25T03:02:45.912Z,63.57
2022-07-25T03:03:46.262Z,63.37
2022-07-25T03:04:45.907Z,63.17
2022-07-25T03:05:45.892Z,63.80
2022-07-25T03:06:45.884Z,63.70
2022-07-25T03:07:45.876Z,63.97
2022-07-25T03:08:45.834Z,63.70
2022-07-25T03:09:46.094Z,63.50
2022-07-25T03:10:45.835Z,63.60
2022-07-25T03:11:45.819Z,63.80
2022-07-25T03:12:45.797Z,64.40
2022-07-25T03:13:45.783Z,64.10
2022-07-25T03:14:46.045Z,64.00
2022-07-25T03:15:45.765Z,64.40
2022-07-25T03:16:45.788Z,63.60
2022-07-25T03:17:45.760Z,63.80
2022-07-25T03:18:45.771Z,64.10
2022-07-25T03:19:45.719Z,64.00
2022-07-25T03:20:46.020Z,63.90
2022-07-25T03:21:45.709Z,63.90
2022-07-25T03:22:45.678Z,64.50
2022-07-25T03:23:49.141Z,64.20
2022-07-25T03:24:46.663Z,64.10
2022-07-25T03:25:45.639Z,64.60
2022-07-25T03:26:45.843Z,64.40
2022-07-25T03:27:45.620Z,64.20
2022-07-25T03:28:45.614Z,64.20
2022-07-25T03:29:45.600Z,64.50
2022-07-25T03:30:45.604Z,63.80
2022-07-25T03:31:45.613Z,63.90
2022-07-25T03:32:45.842Z,64.30
2022-07-25T03:33:45.572Z,64.30
2022-07-25T03:34:45.547Z,64.60
2022-07-25T03:35:45.546Z,64.30
2022-07-25T03:36:45.535Z,64.10
2022-07-25T03:37:45.513Z,64.40
2022-07-25T03:38:45.818Z,64.10
2022-07-25T03:39:45.485Z,64.00
2022-07-25T03:40:45.695Z,64.73
2022-07-25T03:41:45.475Z,64.53
2022-07-25T03:42:45.445Z,64.23
2022-07-25T03:43:45.438Z,64.23
2022-07-25T03:44:45.434Z,64.03
2022-07-25T03:45:45.488Z,64.00
2022-07-25T03:46:45.765Z,64.00
2022-07-25T03:47:45.410Z,63.80
2022-07-25T03:48:45.422Z,64.20
2022-07-25T03:49:45.383Z,64.03
2022-07-25T03:50:45.357Z,63.80
2022-07-25T03:51:45.353Z,63.90
2022-07-25T03:52:45.579Z,63.80
2022-07-25T03:53:45.335Z,63.70
2022-07-25T03:54:45.313Z,63.60
2022-07-25T03:55:45.513Z,63.50
2022-07-25T03:56:45.293Z,63.50
2022-07-25T03:57:45.292Z,63.50
2022-07-25T03:58:45.275Z,63.50
2022-07-25T03:59:45.265Z,63.50
2022-07-25T04:00:45.332Z,63.30
2022-07-25T04:01:47.920Z,63.20
2022-07-25T04:02:45.239Z,63.20
2022-07-25T04:03:48.187Z,63.20
2022-07-25T04:04:45.207Z,63.10
2022-07-25T04:05:47.562Z,63.10
2022-07-25T04:06:47.345Z,63.10
2022-07-25T04:07:47.826Z,63.20
2022-07-25T04:08:47.824Z,63.20
2022-07-25T04:09:48.115Z,62.90
2022-07-25T04:10:47.830Z,63.10
2022-07-25T04:11:47.780Z,63.00
2022-07-25T04:12:45.107Z,62.90
2022-07-25T04:13:45.103Z,62.90
2022-07-25T04:14:45.077Z,62.90
2022-07-25T04:15:45.130Z,63.10
2022-07-25T04:16:45.108Z,62.81
2022-07-25T04:17:45.063Z,62.81
2022-07-25T04:18:45.051Z,62.81
2022-07-25T04:19:45.031Z,62.70
2022-07-25T04:20:45.019Z,62.67
2022-07-25T04:21:45.140Z,62.57
2022-07-25T04:22:47.129Z,62.57
2022-07-25T04:23:44.983Z,62.48
2022-07-25T04:24:44.984Z,62.57
2022-07-25T04:25:44.961Z,62.67
2022-07-25T04:26:44.974Z,62.57
2022-07-25T04:27:45.174Z,62.57
2022-07-25T04:28:44.936Z,62.77
2022-07-25T04:29:44.919Z,62.77
2022-07-25T04:30:44.917Z,62.77
2022-07-25T04:31:44.957Z,62.77
2022-07-25T04:32:44.890Z,62.77
2022-07-25T04:33:45.130Z,62.97
2022-07-25T04:34:44.868Z,62.67
2022-07-25T04:35:44.861Z,62.87
2022-07-25T04:36:44.858Z,62.97
2022-07-25T04:37:44.839Z,63.17
2022-07-25T04:38:45.132Z,62.87
2022-07-25T04:39:44.800Z,62.77
2022-07-25T04:40:44.795Z,62.57
2022-07-25T04:41:44.801Z,62.48
2022-07-25T04:42:44.780Z,62.48
2022-07-25T04:43:48.556Z,62.45
2022-07-25T04:44:45.176Z,62.64
2022-07-25T04:45:44.813Z,62.64
2022-07-25T04:46:44.721Z,62.34
2022-07-25T04:47:44.723Z,62.45
2022-07-25T04:48:46.216Z,62.34
2022-07-25T04:49:44.963Z,62.15
2022-07-25T04:50:44.695Z,62.15
2022-07-25T04:51:44.661Z,62.15
2022-07-25T04:52:44.665Z,62.15
2022-07-25T04:53:44.642Z,62.15
2022-07-25T04:54:44.631Z,62.04
2022-07-25T04:55:44.937Z,62.15
2022-07-25T04:56:44.626Z,62.15
2022-07-25T04:57:44.593Z,62.54
2022-07-25T04:58:44.590Z,62.45
2022-07-25T04:59:44.579Z,62.12
2022-07-25T05:00:44.750Z,62.01
2022-07-25T05:01:45.037Z,62.31
2022-07-25T05:02:44.623Z,62.01
2022-07-25T05:03:49.995Z,62.31
2022-07-25T05:04:45.734Z,62.51
2022-07-25T05:05:44.519Z,62.41
2022-07-25T05:06:44.496Z,62.71
2022-07-25T05:07:44.740Z,62.91
2022-07-25T05:08:44.488Z,62.61
2022-07-25T05:09:44.467Z,62.91
2022-07-25T05:10:44.471Z,63.11
2022-07-25T05:11:47.979Z,62.61
2022-07-25T05:12:45.443Z,63.11
2022-07-25T05:13:44.754Z,63.18
2022-07-25T05:14:44.407Z,62.98
2022-07-25T05:15:44.393Z,62.29
2022-07-25T05:16:44.438Z,61.79
2022-07-25T05:17:44.387Z,61.79
2022-07-25T05:18:44.574Z,62.08
2022-07-25T05:19:44.350Z,62.29
2022-07-25T05:20:44.653Z,61.99
2022-07-25T05:21:44.326Z,61.79
2022-07-25T05:22:44.330Z,61.79
2022-07-25T05:23:44.323Z,61.49
2022-07-25T05:24:44.306Z,61.58
2022-07-25T05:25:44.606Z,61.69
2022-07-25T05:26:44.274Z,61.85
2022-07-25T05:27:44.255Z,61.96
2022-07-25T05:28:44.247Z,61.76
2022-07-25T05:29:44.249Z,62.05
2022-07-25T05:30:44.260Z,62.26
2022-07-25T05:31:44.531Z,62.26
2022-07-25T05:32:44.211Z,62.26
2022-07-25T05:33:44.187Z,62.45
2022-07-25T05:34:44.189Z,62.15
2022-07-25T05:35:44.179Z,62.05
2022-07-25T05:36:47.357Z,62.45
2022-07-25T05:37:44.161Z,62.05
2022-07-25T05:38:44.130Z,62.42
2022-07-25T05:39:44.145Z,62.32
2022-07-25T05:40:44.124Z,62.32
2022-07-25T05:41:44.106Z,62.32
2022-07-25T05:42:44.401Z,62.32
2022-07-25T05:43:44.071Z,62.62
2022-07-25T05:44:44.319Z,62.23
2022-07-25T05:45:44.067Z,62.62
2022-07-25T05:46:44.116Z,62.62
2022-07-25T05:47:44.352Z,62.62
2022-07-25T05:48:44.108Z,62.13
2022-07-25T05:49:44.015Z,62.02
2022-07-25T05:50:44.016Z,62.32
2022-07-25T05:51:43.987Z,61.99
2022-07-25T05:52:43.986Z,61.80
2022-07-25T05:53:44.241Z,62.10
2022-07-25T05:54:43.958Z,62.10
2022-07-25T05:55:43.947Z,62.29
2022-07-25T05:56:43.938Z,62.29
2022-07-25T05:57:44.157Z,62.19
2022-07-25T05:58:43.911Z,62.40
2022-07-25T05:59:43.893Z,62.29
2022-07-25T06:00:43.890Z,62.49
2022-07-25T06:01:43.966Z,62.10
2022-07-25T06:02:44.308Z,62.49
2022-07-25T06:03:43.840Z,61.87
2022-07-25T06:04:43.841Z,61.57
2022-07-25T06:05:43.832Z,61.96
2022-07-25T06:06:43.831Z,62.76
2022-07-25T06:07:43.790Z,62.96
2022-07-25T06:08:44.113Z,61.87
2022-07-25T06:09:43.786Z,61.57
2022-07-25T06:10:43.760Z,61.47
2022-07-25T06:11:51.062Z,60.77
2022-07-25T06:12:44.755Z,60.94
2022-07-25T06:13:43.986Z,60.44
2022-07-25T06:14:43.758Z,60.25
2022-07-25T06:15:44.026Z,60.35
2022-07-25T06:16:44.091Z,59.65
2022-07-25T06:17:43.688Z,59.92
2022-07-25T06:18:43.692Z,59.72
2022-07-25T06:19:43.672Z,59.22
2022-07-25T06:20:43.646Z,59.03
2022-07-25T06:21:43.625Z,58.43
2022-07-25T06:22:43.909Z,58.70
2022-07-25T06:23:43.609Z,58.70
2022-07-25T06:24:43.598Z,58.40
2022-07-25T06:25:43.585Z,58.00
2022-07-25T06:26:44.579Z,58.00
2022-07-25T06:27:43.877Z,57.51
2022-07-25T06:28:43.549Z,57.38
2022-07-25T06:29:43.552Z,57.08
2022-07-25T06:30:43.536Z,57.28
2022-07-25T06:31:46.414Z,57.28
2022-07-25T06:32:43.519Z,57.18
2022-07-25T06:33:43.822Z,56.78
2022-07-25T06:34:43.480Z,56.88
2022-07-25T06:35:43.473Z,57.08
2022-07-25T06:36:43.470Z,56.68
2022-07-25T06:37:43.788Z,56.76
2022-07-25T06:38:43.456Z,56.56
2022-07-25T06:39:45.810Z,56.66
2022-07-25T06:40:43.415Z,56.16
2022-07-25T06:41:43.417Z,56.26
2022-07-25T06:42:43.727Z,55.96
2022-07-25T06:43:43.400Z,56.16
2022-07-25T06:44:43.385Z,55.87
2022-07-25T06:45:43.355Z,55.57
2022-07-25T06:46:43.438Z,55.76
2022-07-25T06:47:43.336Z,55.64
2022-07-25T06:48:43.676Z,55.54
2022-07-25T06:49:43.341Z,55.44
2022-07-25T06:50:43.328Z,55.74
2022-07-25T06:51:43.304Z,55.64
2022-07-25T06:52:43.278Z,55.64
2022-07-25T06:53:43.268Z,55.64
2022-07-25T06:54:43.282Z,55.54
2022-07-25T06:55:43.479Z,55.64
2022-07-25T06:56:43.242Z,55.54
2022-07-25T06:57:43.230Z,55.44
2022-07-25T06:58:43.212Z,55.44
2022-07-25T06:59:43.216Z,55.34
2022-07-25T07:00:43.267Z,55.44
2022-07-25T07:01:46.980Z,55.54
2022-07-25T07:02:44.185Z,55.41
2022-07-25T07:03:43.246Z,55.51
2022-07-25T07:04:43.163Z,55.61
2022-07-25T07:05:43.383Z,55.51
2022-07-25T07:06:43.125Z,55.41
2022-07-25T07:07:47.393Z,55.32
2022-07-25T07:08:43.115Z,55.41
2022-07-25T07:09:43.126Z,55.32
2022-07-25T07:10:43.098Z,55.41
2022-07-25T07:11:43.078Z,55.11
2022-07-25T07:12:43.373Z,55.21
2022-07-25T07:13:43.049Z,55.02
2022-07-25T07:14:43.049Z,55.21
2022-07-25T07:15:43.088Z,55.32
2022-07-25T07:16:43.079Z,55.32
2022-07-25T07:17:43.262Z,55.41
2022-07-25T07:18:47.218Z,55.32
2022-07-25T07:19:43.984Z,55.51
2022-07-25T07:20:42.958Z,55.71
2022-07-25T07:21:42.951Z,55.81
2022-07-25T07:22:42.939Z,55.91
2022-07-25T07:23:43.265Z,55.91
2022-07-25T07:24:44.156Z,55.88
2022-07-25T07:25:42.905Z,56.08
2022-07-25T07:26:42.916Z,55.98
2022-07-25T07:27:42.936Z,56.08
2022-07-25T07:28:43.192Z,56.08
2022-07-25T07:29:42.861Z,56.48
2022-07-25T07:31:43.924Z,56.08
2022-07-25T07:32:42.828Z,56.08
2022-07-25T07:33:42.830Z,56.18
2022-07-25T07:34:42.839Z,55.88
2022-07-25T07:35:42.807Z,56.08
2022-07-25T07:36:42.809Z,56.08
2022-07-25T07:37:43.811Z,56.08
2022-07-25T07:38:42.758Z,56.28
2022-07-25T07:39:42.747Z,56.18
2022-07-25T07:40:43.071Z,55.88
2022-07-25T07:41:42.744Z,55.98
2022-07-25T07:42:42.742Z,55.96
2022-07-25T07:43:42.700Z,55.96
2022-07-25T07:44:42.697Z,55.76
2022-07-25T07:45:43.004Z,55.85
2022-07-25T07:46:42.774Z,55.66
2022-07-25T07:47:42.660Z,55.36
2022-07-25T07:48:42.716Z,55.76
2022-07-25T07:49:45.911Z,55.76
2022-07-25T07:50:43.884Z,55.85
2022-07-25T07:51:42.633Z,55.46
2022-07-25T07:52:42.626Z,55.66
2022-07-25T07:53:42.614Z,55.85
2022-07-25T07:54:42.594Z,54.64
2022-07-25T07:55:42.821Z,55.33
2022-07-25T07:56:42.587Z,55.24
2022-07-25T07:57:42.544Z,54.94
2022-07-25T07:58:42.558Z,55.24
2022-07-25T07:59:42.801Z,55.13
2022-07-25T08:00:42.529Z,55.41
2022-07-25T08:01:42.523Z,54.61
2022-07-25T08:02:42.586Z,54.42
2022-07-25T08:03:42.478Z,54.71
2022-07-25T08:04:42.478Z,55.11
2022-07-25T08:05:42.793Z,54.61
2022-07-25T08:06:42.457Z,54.22
2022-07-25T08:07:42.440Z,54.69
2022-07-25T08:08:42.444Z,54.59
2022-07-25T08:09:42.419Z,54.39
2022-07-25T08:10:42.411Z,54.29
2022-07-25T08:11:42.725Z,54.39
2022-07-25T08:12:42.395Z,54.27
2022-07-25T08:13:42.378Z,54.36
2022-07-25T08:14:42.704Z,54.76
2022-07-25T08:15:42.436Z,54.76
2022-07-25T08:16:43.001Z,54.83
2022-07-25T08:17:42.344Z,53.55
2022-07-25T08:18:42.314Z,53.35
2022-07-25T08:19:42.304Z,53.85
2022-07-25T08:20:42.294Z,52.83
2022-07-25T08:21:42.296Z,53.03
2022-07-25T08:22:42.585Z,53.22
2022-07-25T08:23:42.256Z,52.53
2022-07-25T08:24:42.284Z,52.73
2022-07-25T08:25:42.227Z,52.93
2022-07-25T08:26:42.236Z,52.83
2022-07-25T08:27:42.231Z,52.44
2022-07-25T08:28:42.513Z,53.20
2022-07-25T08:29:42.200Z,53.20
2022-07-25T08:30:42.213Z,53.39
2022-07-25T08:31:42.223Z,52.61
2022-07-25T08:32:42.159Z,52.51
2022-07-25T08:33:42.163Z,52.91
2022-07-25T08:34:42.354Z,52.11
2022-07-25T08:35:42.174Z,52.48
2022-07-25T08:36:42.112Z,52.09
2022-07-25T08:37:42.107Z,52.48
2022-07-25T08:38:42.106Z,52.58
2022-07-25T08:39:56.587Z,51.40
2022-07-25T08:40:42.075Z,51.59
2022-07-25T08:41:42.387Z,51.79
2022-07-25T08:42:42.047Z,51.69
2022-07-25T08:43:42.038Z,51.79
2022-07-25T08:44:42.015Z,51.69
2022-07-25T08:45:42.006Z,51.30
2022-07-25T08:46:42.103Z,51.00
2022-07-25T08:47:42.311Z,51.20
2022-07-25T08:48:42.008Z,51.59
2022-07-25T08:49:41.971Z,51.50
2022-07-25T08:50:41.948Z,50.90
2022-07-25T08:51:41.951Z,51.20
2022-07-25T08:52:41.941Z,51.59
2022-07-25T08:53:42.209Z,51.50
2022-07-25T08:54:42.929Z,51.00
2022-07-25T08:55:41.890Z,51.00
2022-07-25T08:56:41.882Z,51.62
2022-07-25T08:57:41.877Z,51.13
2022-07-25T08:58:43.814Z,51.23
2022-07-25T08:59:41.844Z,51.42
2022-07-25T09:00:41.863Z,51.23
2022-07-25T09:01:41.933Z,51.42
2022-07-25T09:02:41.829Z,51.13
2022-07-25T09:03:41.794Z,50.93
2022-07-25T09:04:42.103Z,51.03
2022-07-25T09:05:41.774Z,51.03
2022-07-25T09:06:42.048Z,51.03
2022-07-25T09:07:41.773Z,51.13
2022-07-25T09:08:41.745Z,51.32
2022-07-25T09:09:41.738Z,51.23
2022-07-25T09:10:41.728Z,51.62
2022-07-25T09:11:41.730Z,51.62
2022-07-25T09:12:42.041Z,51.52
2022-07-25T09:13:41.696Z,51.62
2022-07-25T09:14:41.692Z,51.72
2022-07-25T09:15:41.729Z,52.01
2022-07-25T09:16:41.970Z,51.82
2022-07-25T09:17:41.644Z,52.21
2022-07-25T09:18:41.645Z,52.34
2022-07-25T09:19:41.629Z,52.63
2022-07-25T09:20:41.922Z,52.53
2022-07-25T09:21:41.593Z,52.73
2022-07-25T09:22:41.582Z,52.86
2022-07-25T09:23:41.585Z,52.95
2022-07-25T09:24:41.557Z,53.25
2022-07-25T09:25:41.876Z,53.22
2022-07-25T09:26:41.534Z,53.03
2022-07-25T09:27:41.537Z,52.83
2022-07-25T09:28:41.530Z,52.80
2022-07-25T09:29:41.527Z,53.10
2022-07-25T09:30:41.537Z,52.61
2022-07-25T09:31:41.825Z,53.00
2022-07-25T09:32:41.480Z,52.41
2022-07-25T09:33:41.458Z,52.31
2022-07-25T09:34:41.461Z,52.61
2022-07-25T09:35:41.459Z,53.20
2022-07-25T09:36:41.751Z,53.10
2022-07-25T09:37:41.408Z,53.10
2022-07-25T09:38:41.400Z,53.17
2022-07-25T09:39:45.922Z,52.78
2022-07-25T09:40:42.388Z,52.78
2022-07-25T09:41:41.376Z,52.78
2022-07-25T09:42:41.671Z,52.66
2022-07-25T09:43:41.351Z,52.66
2022-07-25T09:44:41.346Z,52.66
2022-07-25T09:45:41.334Z,52.28
2022-07-25T09:46:41.381Z,52.68
2022-07-25T09:47:41.514Z,53.00
2022-07-25T09:48:41.382Z,53.20
2022-07-25T09:49:41.297Z,53.30
2022-07-25T09:50:41.264Z,53.10
2022-07-25T09:51:41.270Z,53.37
2022-07-25T09:52:41.258Z,53.17
2022-07-25T09:53:41.559Z,53.47
2022-07-25T09:54:41.226Z,53.37
2022-07-25T09:55:41.218Z,52.98
2022-07-25T09:56:41.220Z,53.05
2022-07-25T09:57:41.201Z,53.08
2022-07-25T09:58:43.870Z,53.17
2022-07-25T09:59:41.407Z,53.15
2022-07-25T10:00:41.170Z,53.27
2022-07-25T10:01:41.281Z,53.08
2022-07-25T10:02:41.401Z,53.37
2022-07-25T10:03:41.110Z,53.47
2022-07-25T10:04:41.110Z,53.67
2022-07-25T10:05:41.106Z,53.86
2022-07-25T10:06:41.090Z,53.77
2022-07-25T10:07:41.072Z,53.77
2022-07-25T10:08:41.104Z,53.86
2022-07-25T10:09:41.052Z,54.06
2022-07-25T10:10:41.042Z,53.64
2022-07-25T10:11:41.038Z,53.84
2022-07-25T10:12:41.040Z,53.67
2022-07-25T10:13:41.004Z,53.86
2022-07-25T10:14:41.244Z,53.86
2022-07-25T10:15:40.985Z,53.57
2022-07-25T10:16:41.009Z,53.96
2022-07-25T10:17:40.979Z,53.96
2022-07-25T10:18:40.946Z,53.34
2022-07-25T10:19:43.763Z,53.05
2022-07-25T10:20:42.261Z,53.25
2022-07-25T10:21:40.941Z,52.95
2022-07-25T10:22:55.639Z,53.17
2022-07-25T10:23:41.889Z,53.57
2022-07-25T10:24:40.892Z,53.27
2022-07-25T10:25:43.757Z,53.27
2022-07-25T10:26:42.108Z,52.58
2022-07-25T10:27:40.863Z,53.08
2022-07-25T10:28:40.832Z,52.80
2022-07-25T10:29:40.830Z,53.00
2022-07-25T10:30:40.897Z,53.39
2022-07-25T10:31:44.891Z,53.59
2022-07-25T10:32:41.807Z,53.72
2022-07-25T10:33:40.796Z,53.62
2022-07-25T10:34:40.789Z,53.72
2022-07-25T10:35:40.775Z,54.02
2022-07-25T10:36:40.757Z,54.21
2022-07-25T10:37:42.927Z,54.24
2022-07-25T10:38:41.739Z,54.04
2022-07-25T10:39:47.740Z,54.04
2022-07-25T10:40:40.698Z,54.04
2022-07-25T10:41:40.701Z,54.24
2022-07-25T10:42:40.942Z,54.46
2022-07-25T10:43:40.669Z,55.15
2022-07-25T10:44:40.671Z,55.55
2022-07-25T10:45:40.689Z,55.65
2022-07-25T10:46:40.714Z,55.94
2022-07-25T10:47:40.633Z,56.04
2022-07-25T10:48:40.952Z,55.45
2022-07-25T10:49:50.134Z,55.87
2022-07-25T10:50:55.366Z,55.87
2022-07-25T10:51:42.265Z,55.97
2022-07-25T10:52:40.588Z,56.07
2022-07-25T10:53:40.551Z,56.37
2022-07-25T10:54:40.813Z,56.46
2022-07-25T10:55:40.538Z,55.97
2022-07-25T10:56:40.514Z,55.97
2022-07-25T10:57:55.088Z,55.68
2022-07-25T10:58:41.508Z,55.77
2022-07-25T10:59:40.499Z,55.77
2022-07-25T11:00:40.485Z,55.90
2022-07-25T11:01:40.833Z,56.10
2022-07-25T11:02:40.488Z,56.30
2022-07-25T11:03:40.450Z,56.40
2022-07-25T11:04:40.439Z,56.49
2022-07-25T11:05:40.433Z,56.99
2022-07-25T11:06:40.642Z,56.69
2022-07-25T11:07:40.390Z,56.40
2022-07-25T11:08:40.391Z,56.37
2022-07-25T11:09:40.683Z,56.57
2022-07-25T11:10:40.351Z,56.76
2022-07-25T11:11:40.364Z,56.37
2022-07-25T11:12:40.331Z,55.94
2022-07-25T11:13:40.322Z,56.44
2022-07-25T11:14:40.635Z,55.85
2022-07-25T11:15:40.302Z,56.02
2022-07-25T11:16:40.363Z,55.43
2022-07-25T11:17:40.606Z,55.22
2022-07-25T11:18:40.266Z,55.62
2022-07-25T11:19:40.268Z,55.20
2022-07-25T11:20:40.243Z,55.20
2022-07-25T11:21:40.248Z,55.30
2022-07-25T11:22:40.558Z,55.10
2022-07-25T11:23:40.219Z,55.30
2022-07-25T11:24:40.208Z,55.10
2022-07-25T11:25:40.217Z,54.80
2022-07-25T11:26:40.188Z,55.10
2022-07-25T11:27:40.158Z,54.90
2022-07-25T11:28:40.389Z,54.71
2022-07-25T11:29:40.154Z,55.10
2022-07-25T11:30:40.119Z,54.88
2022-07-25T11:31:40.152Z,54.78
2022-07-25T11:32:40.359Z,54.68
2022-07-25T11:33:40.105Z,54.68
2022-07-25T11:34:40.098Z,55.18
2022-07-25T11:35:40.083Z,54.38
2022-07-25T11:36:40.066Z,54.78
2022-07-25T11:37:40.055Z,54.58
2022-07-25T11:38:40.353Z,54.85
2022-07-25T11:39:40.025Z,54.55
2022-07-25T11:40:40.004Z,55.07
2022-07-25T11:41:40.008Z,55.27
2022-07-25T11:42:39.983Z,55.44
2022-07-25T11:43:39.975Z,54.97
2022-07-25T11:44:44.132Z,55.47
2022-07-25T11:45:41.292Z,55.35
2022-07-25T11:46:39.937Z,55.15
2022-07-25T11:47:39.927Z,55.35
2022-07-25T11:48:39.991Z,54.75
2022-07-25T11:49:39.921Z,55.15
2022-07-25T11:50:40.206Z,55.57
2022-07-25T11:51:39.880Z,56.06
2022-07-25T11:52:39.885Z,56.16
2022-07-25T11:53:39.862Z,56.48
2022-07-25T11:54:40.049Z,56.38
2022-07-25T11:55:39.853Z,56.68
2022-07-25T11:56:43.056Z,56.48
2022-07-25T11:57:39.812Z,56.78
2022-07-25T11:58:39.801Z,56.68
2022-07-25T11:59:39.806Z,56.98
2022-07-25T12:00:40.026Z,56.16
2022-07-25T12:01:39.892Z,56.19
2022-07-25T12:02:39.835Z,56.19
2022-07-25T12:03:39.864Z,56.48
2022-07-25T12:04:39.985Z,56.46
2022-07-25T12:05:39.741Z,55.96
2022-07-25T12:06:39.705Z,56.26
2022-07-25T12:07:39.719Z,56.38
2022-07-25T12:08:39.686Z,56.36
2022-07-25T12:09:39.690Z,56.26
2022-07-25T12:10:40.032Z,55.74
2022-07-25T12:11:39.967Z,54.38
2022-07-25T12:12:39.658Z,54.38
2022-07-25T12:13:39.838Z,53.67
2022-07-25T12:14:39.634Z,52.68
2022-07-25T12:15:39.620Z,52.36
2022-07-25T12:16:39.942Z,52.26
2022-07-25T12:17:39.590Z,51.77
2022-07-25T12:18:39.581Z,51.28
2022-07-25T12:19:39.570Z,51.40
2022-07-25T12:20:39.552Z,51.50
2022-07-25T12:21:39.861Z,51.82
2022-07-25T12:22:39.533Z,52.11
2022-07-25T12:23:39.809Z,52.34
2022-07-25T12:24:39.512Z,52.93
2022-07-25T12:25:39.504Z,52.34
2022-07-25T12:26:39.491Z,52.34
2022-07-25T12:27:39.699Z,52.63
2022-07-25T12:28:39.465Z,52.53
2022-07-25T12:29:39.476Z,52.44
2022-07-25T12:30:39.503Z,52.34
2022-07-25T12:31:39.436Z,52.04
2022-07-25T12:32:39.416Z,52.83
2022-07-25T12:33:39.427Z,52.44
2022-07-25T12:34:39.419Z,52.31
2022-07-25T12:35:39.387Z,52.31
2022-07-25T12:36:39.378Z,52.41
2022-07-25T12:37:39.369Z,52.01
2022-07-25T12:38:39.567Z,52.01
2022-07-25T12:39:39.364Z,52.44
2022-07-25T12:40:39.346Z,52.14
2022-07-25T12:41:39.323Z,52.63
2022-07-25T12:42:39.312Z,52.63
2022-07-25T12:43:39.303Z,52.83
2022-07-25T12:44:39.559Z,52.63
2022-07-25T12:45:39.319Z,52.66
2022-07-25T12:46:39.295Z,53.25
2022-07-25T12:47:39.254Z,52.86
2022-07-25T12:48:39.260Z,53.25
2022-07-25T12:49:39.235Z,53.15
2022-07-25T12:50:39.558Z,53.15
2022-07-25T12:51:39.237Z,53.15
2022-07-25T12:52:39.479Z,52.76
2022-07-25T12:53:42.500Z,52.95